createdAt,value
2022-09-23T00:01:10.566Z,79.18
2022-09-23T00:03:41.757Z,79.17
2022-09-23T00:06:11.053Z,78.90
2022-09-23T00:08:38.870Z,79.11
2022-09-23T00:11:07.754Z,79.19
2022-09-23T00:13:35.315Z,79.54
2022-09-23T00:16:06.738Z,79.40
2022-09-23T00:18:33.631Z,79.57
2022-09-23T00:21:07.298Z,79.34
2022-09-23T00:23:33.864Z,79.69
2022-09-23T00:26:02.582Z,79.81
2022-09-23T00:28:30.819Z,78.67
2022-09-23T00:31:05.716Z,79.27
2022-09-23T00:33:32.628Z,79.42
2022-09-23T00:36:01.908Z,79.54
2022-09-23T00:38:28.542Z,79.08
2022-09-23T00:40:55.109Z,79.60
2022-09-23T00:43:37.631Z,80.25
2022-09-23T00:46:06.464Z,79.38
2022-09-23T00:48:33.065Z,79.66
2022-09-23T00:50:59.782Z,79.64
2022-09-23T00:53:26.735Z,79.89
2022-09-23T00:55:57.413Z,78.83
2022-09-23T00:58:27.962Z,79.47
2022-09-23T01:00:55.541Z,79.35
2022-09-23T01:03:22.924Z,79.29
2022-09-23T01:05:50.248Z,79.58
2022-09-23T01:08:17.970Z,79.05
2022-09-23T01:11:09.332Z,79.17
2022-09-23T01:13:38.695Z,79.30
2022-09-23T01:16:10.330Z,78.64
2022-09-23T01:19:03.046Z,79.26
2022-09-23T01:21:48.710Z,79.31
2022-09-23T01:24:24.097Z,79.83
2022-09-23T01:27:10.343Z,79.73
2022-09-23T01:30:07.236Z,80.00
2022-09-23T01:33:04.772Z,79.36
2022-09-23T01:35:31.321Z,79.36
2022-09-23T01:38:16.620Z,79.10
2022-09-23T01:41:04.582Z,79.58
2022-09-23T01:43:42.851Z,79.29
2022-09-23T01:46:18.095Z,79.30
2022-09-23T01:48:54.118Z,80.06
2022-09-23T01:51:30.945Z,79.47
2022-09-23T01:54:10.666Z,79.71
2022-09-23T01:57:02.909Z,79.99
2022-09-23T01:59:36.573Z,79.33
2022-09-23T02:02:15.198Z,79.79
2022-09-23T02:04:54.167Z,79.76
2022-09-23T02:07:35.448Z,79.41
2022-09-23T02:10:25.518Z,79.97
2022-09-23T02:12:57.611Z,80.12
2022-09-23T02:15:32.643Z,80.01
2022-09-23T02:18:05.221Z,79.13
2022-09-23T02:20:37.384Z,80.22
2022-09-23T02:23:09.898Z,79.71
2022-09-23T02:26:05.385Z,80.20
2022-09-23T02:28:41.163Z,79.46
2022-09-23T02:31:20.648Z,79.83
2022-09-23T02:34:14.026Z,80.52
2022-09-23T02:36:50.101Z,80.09
2022-09-23T02:39:20.683Z,79.92
2022-09-23T02:42:02.163Z,79.39
2022-09-23T02:44:28.983Z,80.35
2022-09-23T02:46:56.773Z,79.97
2022-09-23T02:49:26.595Z,79.49
2022-09-23T02:51:54.545Z,79.24
2022-09-23T02:54:25.679Z,80.07
2022-09-23T02:56:53.213Z,80.00
2022-09-23T02:59:22.333Z,79.63
2022-09-23T03:02:14.023Z,79.05
2022-09-23T03:05:19.237Z,79.26
2022-09-23T03:07:49.325Z,79.78
2022-09-23T03:10:37.656Z,79.86
2022-09-23T03:13:19.426Z,79.86
2022-09-23T03:15:59.555Z,79.54
2022-09-23T03:18:37.073Z,79.76
2022-09-23T03:21:28.968Z,79.94
2022-09-23T03:23:59.818Z,79.94
2022-09-23T03:26:34.037Z,79.35
2022-09-23T03:29:05.218Z,79.43
2022-09-23T03:31:33.970Z,79.21
2022-09-23T03:34:05.986Z,79.64
2022-09-23T03:37:00.944Z,79.88
2022-09-23T03:39:36.717Z,80.00
2022-09-23T03:42:21.256Z,79.40
2022-09-23T03:44:51.474Z,79.71
2022-09-23T03:47:18.526Z,79.62
2022-09-23T03:49:50.754Z,79.79
2022-09-23T03:52:19.441Z,79.45
2022-09-23T03:54:52.830Z,80.07
2022-09-23T03:57:22.132Z,79.60
2022-09-23T03:59:52.823Z,79.75
2022-09-23T04:02:20.235Z,80.30
2022-09-23T04:04:46.979Z,79.16
2022-09-23T04:07:14.218Z,80.50
2022-09-23T04:09:41.036Z,80.26
2022-09-23T04:12:08.287Z,79.33
2022-09-23T04:14:35.523Z,79.97
2022-09-23T04:17:02.778Z,79.71
2022-09-23T04:19:29.462Z,79.22
2022-09-23T04:21:56.039Z,79.36
2022-09-23T04:24:22.647Z,79.38
2022-09-23T04:26:53.786Z,79.84
2022-09-23T04:29:21.019Z,79.91
2022-09-23T04:31:48.150Z,79.18
2022-09-23T04:34:17.305Z,79.14
2022-09-23T04:36:45.327Z,79.28
2022-09-23T04:39:13.123Z,79.05
2022-09-23T04:41:39.681Z,79.44
2022-09-23T04:44:06.500Z,78.59
2022-09-23T04:46:33.156Z,79.01
2022-09-23T04:49:00.067Z,79.23
2022-09-23T04:51:27.784Z,78.67
2022-09-23T04:53:55.882Z,79.36
2022-09-23T04:56:26.304Z,79.60
2022-09-23T04:58:53.088Z,79.47
2022-09-23T05:01:24.319Z,79.10
2022-09-23T05:03:57.805Z,79.22
2022-09-23T05:06:25.163Z,79.07
2022-09-23T05:08:54.066Z,79.15
2022-09-23T05:11:21.498Z,78.62
2022-09-23T05:13:49.817Z,79.06
2022-09-23T05:16:17.716Z,79.37
2022-09-23T05:18:45.998Z,79.74
2022-09-23T05:21:16.618Z,79.27
2022-09-23T05:23:47.773Z,79.26
2022-09-23T05:26:14.972Z,79.54
2022-09-23T05:28:41.754Z,78.95
2022-09-23T05:31:19.317Z,79.33
2022-09-23T05:33:55.756Z,79.75
2022-09-23T05:36:23.298Z,79.32
2022-09-23T05:38:50.911Z,78.47
2022-09-23T05:41:19.606Z,78.45
2022-09-23T05:43:47.318Z,78.14
2022-09-23T05:46:20.889Z,78.12
2022-09-23T05:48:47.689Z,78.11
2022-09-23T05:51:20.141Z,78.02
2022-09-23T05:53:47.907Z,77.89
2022-09-23T05:56:20.059Z,77.64
2022-09-23T05:58:50.372Z,77.72
2022-09-23T06:01:18.213Z,77.94
2022-09-23T06:03:49.061Z,77.70
2022-09-23T06:06:18.190Z,77.66
2022-09-23T06:08:46.268Z,77.83
2022-09-23T06:11:13.823Z,77.30
2022-09-23T06:13:41.379Z,77.20
2022-09-23T06:16:13.869Z,76.90
2022-09-23T06:18:45.667Z,76.91
2022-09-23T06:21:15.135Z,77.54
2022-09-23T06:23:42.344Z,78.10
2022-09-23T06:26:11.587Z,77.85
2022-09-23T06:28:40.432Z,77.45
2022-09-23T06:31:16.926Z,77.77
2022-09-23T06:33:45.060Z,77.42
2022-09-23T06:36:19.484Z,77.70
2022-09-23T06:38:57.546Z,78.02
2022-09-23T06:41:24.378Z,77.12
2022-09-23T06:43:51.014Z,77.08
2022-09-23T06:46:17.741Z,77.12
2022-09-23T06:48:46.337Z,76.44
2022-09-23T06:51:19.345Z,77.09
2022-09-23T06:53:47.986Z,76.81
2022-09-23T06:56:15.616Z,76.94
2022-09-23T06:58:43.145Z,76.84
2022-09-23T07:01:12.273Z,77.21
2022-09-23T07:03:39.265Z,76.54
2022-09-23T07:06:06.457Z,76.35
2022-09-23T07:08:34.031Z,76.29
2022-09-23T07:11:03.122Z,76.40
2022-09-23T07:13:30.820Z,76.16
2022-09-23T07:15:58.928Z,75.26
2022-09-23T07:18:27.047Z,75.55
2022-09-23T07:20:58.829Z,75.78
2022-09-23T07:23:25.740Z,74.86
2022-09-23T07:25:52.632Z,75.14
2022-09-23T07:28:20.130Z,75.22
2022-09-23T07:30:57.534Z,74.40
2022-09-23T07:33:32.210Z,74.81
2022-09-23T07:35:59.650Z,74.75
2022-09-23T07:38:30.072Z,74.62
2022-09-23T07:41:10.300Z,74.12
2022-09-23T07:43:38.578Z,73.48
2022-09-23T07:46:08.859Z,73.32
2022-09-23T07:48:36.643Z,73.26
2022-09-23T07:51:12.737Z,72.93
2022-09-23T07:53:39.563Z,73.24
2022-09-23T07:56:06.666Z,73.44
2022-09-23T07:58:34.670Z,73.04
2022-09-23T08:01:06.788Z,73.72
2022-09-23T08:03:35.343Z,72.76
2022-09-23T08:06:10.826Z,72.17
2022-09-23T08:08:40.400Z,72.37
2022-09-23T08:11:10.287Z,72.40
2022-09-23T08:13:37.719Z,73.14
2022-09-23T08:16:04.650Z,73.12
2022-09-23T08:18:31.314Z,73.49
2022-09-23T08:20:57.959Z,73.22
2022-09-23T08:23:25.326Z,72.95
2022-09-23T08:26:00.178Z,73.25
2022-09-23T08:28:27.640Z,73.01
2022-09-23T08:30:55.411Z,73.18
2022-09-23T08:33:23.828Z,73.23
2022-09-23T08:35:52.427Z,73.04
2022-09-23T08:38:19.608Z,72.96
2022-09-23T08:40:49.522Z,73.32
2022-09-23T08:43:33.960Z,72.97
2022-09-23T08:46:08.629Z,73.40
2022-09-23T08:48:42.362Z,72.78
2022-09-23T08:51:14.249Z,72.94
2022-09-23T08:53:42.287Z,72.55
2022-09-23T08:56:22.636Z,72.71
2022-09-23T08:59:11.148Z,73.04
2022-09-23T09:01:40.670Z,73.31
2022-09-23T09:04:27.957Z,73.16
2022-09-23T09:07:35.721Z,72.63
2022-09-23T09:10:22.393Z,72.94
2022-09-23T09:13:20.488Z,72.40
2022-09-23T09:16:36.624Z,72.26
2022-09-23T09:19:18.909Z,72.38
2022-09-23T09:21:48.045Z,72.00
2022-09-23T09:24:27.948Z,71.61
2022-09-23T09:26:54.651Z,71.05
2022-09-23T09:29:44.937Z,71.22
2022-09-23T09:32:29.779Z,70.77
2022-09-23T09:35:05.577Z,70.76
2022-09-23T09:37:44.610Z,70.58
2022-09-23T09:40:12.270Z,70.57
2022-09-23T09:42:41.477Z,70.70
2022-09-23T09:45:19.895Z,69.83
2022-09-23T09:48:17.802Z,70.14
2022-09-23T09:50:49.338Z,70.07
2022-09-23T09:53:19.229Z,69.45
2022-09-23T09:55:48.406Z,69.62
2022-09-23T09:58:21.042Z,70.00
2022-09-23T10:00:50.599Z,69.65
2022-09-23T10:03:26.303Z,69.71
2022-09-23T10:05:54.549Z,69.38
2022-09-23T10:08:35.471Z,70.04
2022-09-23T10:11:17.039Z,69.66
2022-09-23T10:14:12.632Z,68.85
2022-09-23T10:16:41.487Z,68.66
2022-09-23T10:19:17.538Z,68.54
2022-09-23T10:21:50.662Z,68.40
2022-09-23T10:24:23.575Z,67.49
2022-09-23T10:26:59.455Z,68.08
2022-09-23T10:29:29.029Z,68.81
2022-09-23T10:32:19.954Z,69.65
2022-09-23T10:35:10.938Z,69.67
2022-09-23T10:38:00.454Z,70.02
2022-09-23T10:40:52.750Z,70.70
2022-09-23T10:43:53.636Z,70.43
2022-09-23T10:46:42.086Z,70.65
2022-09-23T10:49:36.588Z,70.95
2022-09-23T10:52:24.467Z,70.99
2022-09-23T10:55:12.206Z,70.95
2022-09-23T10:57:47.684Z,70.78
2022-09-23T11:00:29.169Z,70.50
2022-09-23T11:03:04.340Z,70.09
2022-09-23T11:05:46.958Z,70.55
2022-09-23T11:08:24.521Z,70.27
2022-09-23T11:11:17.539Z,70.63
2022-09-23T11:13:54.497Z,70.85
2022-09-23T11:16:51.495Z,70.98
2022-09-23T11:19:36.475Z,70.79
2022-09-23T11:22:15.873Z,70.64
2022-09-23T11:24:50.172Z,70.38
2022-09-23T11:27:29.796Z,70.84
2022-09-23T11:30:09.405Z,70.10
2022-09-23T11:32:54.298Z,70.34
2022-09-23T11:35:41.659Z,69.67
2022-09-23T11:38:13.038Z,69.42
2022-09-23T11:40:44.078Z,69.29
2022-09-23T11:43:23.321Z,69.46
2022-09-23T11:46:05.026Z,68.64
2022-09-23T11:48:44.074Z,68.31
2022-09-23T11:51:24.727Z,68.25
2022-09-23T11:54:22.905Z,67.46
2022-09-23T11:56:56.966Z,65.10
2022-09-23T12:02:32.451Z,63.36
2022-09-23T12:05:25.580Z,63.54
2022-09-23T12:08:05.021Z,62.23
2022-09-23T12:10:50.829Z,60.56
2022-09-23T12:13:43.790Z,55.25
2022-09-23T12:16:19.332Z,42.32
2022-09-23T12:18:57.312Z,40.06
2022-09-23T12:22:02.533Z,33.48
2022-09-23T12:24:47.810Z,30.21
2022-09-23T12:27:33.001Z,35.02
2022-09-23T12:30:03.819Z,38.44
2022-09-23T12:32:31.440Z,40.90
2022-09-23T12:34:59.605Z,44.39
2022-09-23T12:37:35.581Z,47.18
2022-09-23T12:40:09.363Z,46.24
2022-09-23T12:42:44.433Z,48.53
2022-09-23T12:45:32.728Z,50.64
2022-09-23T12:48:03.190Z,51.27
2022-09-23T12:50:49.299Z,51.47
2022-09-23T12:53:33.952Z,52.59
2022-09-23T12:56:15.495Z,53.94
2022-09-23T12:58:42.320Z,53.83
2022-09-23T13:01:21.289Z,55.57
2022-09-23T13:04:11.231Z,56.32
2022-09-23T13:06:42.161Z,57.39
2022-09-23T13:09:22.496Z,58.34
2022-09-23T13:11:50.374Z,59.78
2022-09-23T13:14:26.739Z,61.26
2022-09-23T13:16:57.205Z,61.97
2022-09-23T13:19:27.016Z,63.41
2022-09-23T13:21:53.564Z,64.55
2022-09-23T13:24:24.414Z,65.00
2022-09-23T13:27:02.748Z,64.82
2022-09-23T13:29:37.393Z,65.92
2022-09-23T13:32:05.998Z,66.61
2022-09-23T13:34:34.652Z,67.51
2022-09-23T13:37:22.991Z,68.17
2022-09-23T13:39:50.392Z,68.72
2022-09-23T13:42:39.891Z,68.76
2022-09-23T13:45:18.032Z,68.82
2022-09-23T13:47:46.476Z,68.45
2022-09-23T13:50:21.325Z,68.36
2022-09-23T13:52:57.173Z,68.14
2022-09-23T13:55:33.938Z,68.10
2022-09-23T13:58:22.388Z,68.15
2022-09-23T14:00:50.034Z,68.48
2022-09-23T14:03:36.077Z,68.32
2022-09-23T14:06:10.633Z,69.28
2022-09-23T14:08:40.276Z,69.24
2022-09-23T14:11:07.134Z,69.57
2022-09-23T14:13:42.120Z,69.63
2022-09-23T14:16:14.943Z,69.44
2022-09-23T14:18:45.597Z,70.27
2022-09-23T14:21:35.294Z,71.45
2022-09-23T14:24:17.379Z,71.25
2022-09-23T14:26:48.528Z,71.47
2022-09-23T14:29:27.228Z,72.04
2022-09-23T14:32:04.984Z,72.00
2022-09-23T14:34:49.008Z,71.76
2022-09-23T14:37:37.220Z,72.28
2022-09-23T14:40:09.584Z,72.84
2022-09-23T14:42:43.752Z,72.11
2022-09-23T14:45:17.335Z,72.14
2022-09-23T14:47:47.983Z,71.80
2022-09-23T14:50:36.857Z,71.55
2022-09-23T14:53:05.176Z,71.91
2022-09-23T14:55:31.870Z,72.11
2022-09-23T14:58:04.687Z,72.44
2022-09-23T15:00:31.699Z,72.57
2022-09-23T15:03:03.481Z,72.50
2022-09-23T15:05:43.682Z,72.52
2022-09-23T15:08:18.849Z,72.38
2022-09-23T15:10:46.342Z,72.38
2022-09-23T15:13:18.524Z,72.83
2022-09-23T15:15:45.504Z,73.15
2022-09-23T15:18:18.565Z,72.94
2022-09-23T15:20:54.113Z,72.60
2022-09-23T15:23:46.186Z,73.06
2022-09-23T15:26:21.482Z,72.68
2022-09-23T15:28:49.757Z,72.44
2022-09-23T15:31:19.637Z,72.77
2022-09-23T15:33:47.901Z,73.61
2022-09-23T15:36:16.614Z,72.80
2022-09-23T15:38:44.722Z,72.45
2022-09-23T15:41:11.377Z,73.18
2022-09-23T15:43:40.426Z,73.33
2022-09-23T15:46:13.126Z,73.40
2022-09-23T15:48:54.197Z,73.54
2022-09-23T15:51:24.586Z,73.96
2022-09-23T15:53:51.169Z,74.11
2022-09-23T15:56:17.761Z,73.99
2022-09-23T15:58:44.363Z,74.79
2022-09-23T16:01:18.127Z,74.08
2022-09-23T16:03:44.896Z,74.33
2022-09-23T16:06:13.417Z,74.09
2022-09-23T16:08:42.209Z,74.20
2022-09-23T16:11:20.505Z,75.00
2022-09-23T16:13:47.083Z,74.84
2022-09-23T16:16:14.114Z,74.83
2022-09-23T16:18:43.760Z,74.22
2022-09-23T16:21:15.229Z,74.27
2022-09-23T16:23:43.881Z,75.34
2022-09-23T16:26:10.493Z,74.55
2022-09-23T16:28:37.138Z,75.03
2022-09-23T16:31:03.990Z,75.64
2022-09-23T16:33:30.783Z,75.30
2022-09-23T16:36:00.837Z,75.22
2022-09-23T16:38:29.050Z,74.80
2022-09-23T16:41:00.562Z,75.22
2022-09-23T16:43:31.629Z,75.55
2022-09-23T16:45:58.758Z,75.17
2022-09-23T16:48:26.035Z,75.25
2022-09-23T16:50:54.009Z,75.34
2022-09-23T16:53:21.849Z,75.79
2022-09-23T16:55:48.446Z,76.49
2022-09-23T16:58:15.038Z,76.31
2022-09-23T17:01:00.607Z,76.28
2022-09-23T17:03:42.549Z,76.40
2022-09-23T17:06:15.382Z,76.33
2022-09-23T17:08:42.904Z,75.77
2022-09-23T17:11:14.424Z,76.12
2022-09-23T17:13:42.345Z,76.69
2022-09-23T17:16:11.566Z,76.51
2022-09-23T17:18:41.381Z,76.85
2022-09-23T17:21:08.299Z,76.21
2022-09-23T17:23:36.445Z,76.16
2022-09-23T17:26:05.535Z,76.33
2022-09-23T17:28:32.357Z,77.02
2022-09-23T17:31:00.902Z,76.77
2022-09-23T17:33:29.197Z,76.70
2022-09-23T17:35:56.974Z,76.31
2022-09-23T17:38:28.627Z,77.02
2022-09-23T17:40:57.574Z,76.96
2022-09-23T17:43:27.006Z,76.69
2022-09-23T17:45:56.292Z,77.47
2022-09-23T17:48:25.325Z,77.59
2022-09-23T17:51:02.415Z,77.13
2022-09-23T17:53:31.842Z,77.35
2022-09-23T17:56:00.390Z,76.75
2022-09-23T17:58:30.035Z,77.77
2022-09-23T18:00:57.390Z,78.15
2022-09-23T18:03:25.970Z,77.62
2022-09-23T18:05:53.336Z,77.69
2022-09-23T18:08:20.401Z,77.81
2022-09-23T18:10:47.210Z,77.79
2022-09-23T18:13:13.801Z,77.72
2022-09-23T18:15:40.894Z,78.04
2022-09-23T18:18:07.637Z,77.47
2022-09-23T18:20:34.264Z,77.70
2022-09-23T18:23:00.814Z,77.40
2022-09-23T18:25:39.252Z,77.88
2022-09-23T18:28:06.459Z,78.52
2022-09-23T18:30:33.623Z,77.79
2022-09-23T18:33:00.249Z,77.65
2022-09-23T18:35:26.802Z,78.29
2022-09-23T18:37:53.398Z,77.99
2022-09-23T18:40:21.386Z,78.32
2022-09-23T18:42:48.386Z,78.37
2022-09-23T18:45:14.983Z,78.19
2022-09-23T18:48:00.178Z,78.52
2022-09-23T18:50:43.969Z,79.12
2022-09-23T18:53:10.808Z,78.44
2022-09-23T18:55:37.530Z,78.92
2022-09-23T18:58:07.442Z,78.70
2022-09-23T19:00:35.087Z,79.13
2022-09-23T19:03:02.201Z,78.45
2022-09-23T19:05:29.099Z,78.68
2022-09-23T19:07:55.652Z,78.58
2022-09-23T19:10:22.323Z,78.74
2022-09-23T19:12:49.209Z,78.85
2022-09-23T19:15:15.816Z,78.61
2022-09-23T19:17:42.408Z,78.24
2022-09-23T19:20:10.078Z,79.06
2022-09-23T19:22:36.687Z,78.68
2022-09-23T19:25:03.466Z,78.46
2022-09-23T19:27:31.377Z,78.85
2022-09-23T19:29:57.979Z,78.68
2022-09-23T19:32:26.707Z,79.37
2022-09-23T19:34:53.618Z,79.26
2022-09-23T19:37:20.339Z,79.57
2022-09-23T19:39:47.659Z,79.21
2022-09-23T19:42:14.279Z,79.35
2022-09-23T19:44:41.020Z,79.16
2022-09-23T19:47:08.044Z,78.83
2022-09-23T19:49:37.836Z,79.15
2022-09-23T19:52:04.427Z,78.35
2022-09-23T19:54:30.983Z,79.02
2022-09-23T19:56:57.605Z,78.98
2022-09-23T19:59:26.304Z,79.12
2022-09-23T20:01:53.080Z,78.57
2022-09-23T20:04:20.207Z,78.35
2022-09-23T20:06:49.642Z,78.29
2022-09-23T20:09:16.314Z,78.28
2022-09-23T20:11:43.087Z,79.11
2022-09-23T20:14:11.027Z,79.32
2022-09-23T20:16:37.934Z,78.51
2022-09-23T20:19:05.793Z,79.07
2022-09-23T20:21:33.852Z,79.29
2022-09-23T20:24:01.462Z,78.83
2022-09-23T20:26:46.868Z,79.16
2022-09-23T20:29:14.481Z,78.58
2022-09-23T20:31:41.609Z,78.33
2022-09-23T20:34:11.102Z,78.25
2022-09-23T20:36:39.521Z,79.29
2022-09-23T20:39:06.589Z,78.94
2022-09-23T20:41:37.639Z,78.80
2022-09-23T20:44:07.816Z,78.60
2022-09-23T20:46:35.113Z,78.67
2022-09-23T20:49:02.220Z,79.08
2022-09-23T20:51:29.300Z,77.98
2022-09-23T20:53:55.972Z,78.70
2022-09-23T20:56:23.446Z,78.69
2022-09-23T20:58:54.115Z,78.30
2022-09-23T21:01:21.593Z,78.77
2022-09-23T21:03:50.224Z,78.33
2022-09-23T21:06:19.008Z,79.17
2022-09-23T21:08:46.549Z,79.35
2022-09-23T21:11:15.817Z,78.97
2022-09-23T21:13:50.807Z,79.48
2022-09-23T21:16:21.526Z,79.12
2022-09-23T21:18:50.445Z,78.81
2022-09-23T21:21:19.532Z,79.11
2022-09-23T21:23:46.748Z,78.69
2022-09-23T21:26:17.485Z,79.00
2022-09-23T21:28:46.122Z,79.43
2022-09-23T21:31:22.816Z,79.65
2022-09-23T21:33:56.634Z,78.92
2022-09-23T21:36:24.544Z,78.92
2022-09-23T21:38:52.052Z,79.21
2022-09-23T21:41:19.391Z,79.42
2022-09-23T21:43:46.090Z,79.24
2022-09-23T21:46:14.872Z,79.35
2022-09-23T21:48:42.408Z,78.77
2022-09-23T21:51:14.640Z,78.58
2022-09-23T21:53:42.723Z,78.46
2022-09-23T21:56:20.308Z,78.74
2022-09-23T21:58:47.490Z,78.47
2022-09-23T22:01:17.010Z,78.41
2022-09-23T22:03:48.301Z,78.94
2022-09-23T22:06:21.303Z,79.05
2022-09-23T22:08:51.343Z,79.38
2022-09-23T22:11:39.392Z,79.26
2022-09-23T22:14:07.510Z,78.90
2022-09-23T22:16:34.368Z,79.02
2022-09-23T22:19:01.251Z,79.55
2022-09-23T22:21:30.108Z,78.75
2022-09-23T22:23:58.935Z,78.84
2022-09-23T22:26:25.486Z,78.95
2022-09-23T22:29:10.517Z,79.29
2022-09-23T22:31:55.791Z,78.23
2022-09-23T22:34:48.607Z,78.79
2022-09-23T22:37:20.562Z,78.83
2022-09-23T22:39:47.198Z,78.82
2022-09-23T22:42:14.202Z,78.73
2022-09-23T22:44:41.035Z,78.12
2022-09-23T22:47:09.287Z,78.62
2022-09-23T22:49:36.326Z,78.47
2022-09-23T22:52:06.970Z,79.03
2022-09-23T22:54:34.495Z,78.26
2022-09-23T22:57:03.446Z,78.68
2022-09-23T22:59:30.204Z,78.19
2022-09-23T23:01:57.535Z,78.56
2022-09-23T23:04:24.230Z,78.44
2022-09-23T23:06:50.995Z,78.32
2022-09-23T23:09:18.832Z,78.61
2022-09-23T23:11:45.863Z,78.21
2022-09-23T23:14:17.960Z,78.65
2022-09-23T23:16:46.101Z,78.61
2022-09-23T23:19:14.846Z,78.62
2022-09-23T23:21:44.821Z,78.79
2022-09-23T23:24:19.636Z,78.64
2022-09-23T23:26:46.659Z,78.67
2022-09-23T23:29:15.289Z,78.48
2022-09-23T23:31:42.747Z,78.69
2022-09-23T23:34:18.038Z,78.43
2022-09-23T23:36:45.887Z,78.79
2022-09-23T23:39:13.650Z,78.33
2022-09-23T23:41:41.841Z,78.21
2022-09-23T23:44:09.208Z,78.91
2022-09-23T23:46:37.280Z,78.85
2022-09-23T23:49:04.976Z,78.54
2022-09-23T23:51:31.699Z,78.84
2022-09-23T23:53:58.807Z,78.97
2022-09-23T23:56:26.328Z,78.86
2022-09-23T23:58:54.628Z,78.86
